Scf Mariner — WDJ4074 — position and weather

sailwx.info

Track history (hours):
 
Tides and Currents Weather Stations Pressure Air Temp Water Temp Dewpoint Dewpoint Depression Visibility Wind Speed Wind Dir Waves Ship Positions

Scf Mariner

Owner: SCF Waxler Marine LLC, St Rose, LA. More information available from US FCC via Universal Licensing System and Coast Guard Vessel Documentation Center.

Last reported at 2018-Jul-19 04:46 UTC. Time now 2018-Jul-19 19:30 UTC.
Position N 33°20' W 091°10'.

Length 48 m.

Type: Towing. MMSI: 367774150.

Date/timePositionNaut miles runAvg speedWind from/ knotsBaromVisibWave heightAir tempDewpointWater temp
2018-Jul-19 04:46N 33°20' W 091°10'7 3.2
2018-Jul-19 02:23N 33°14' W 091°06'2 4.0
2018-Jul-19 01:57N 33°12' W 091°05'3 3.9
2018-Jul-19 01:14N 33°09' W 091°05'3 3.7
2018-Jul-19 00:22N 33°07' W 091°08'2 3.8
2018-Jul-18 23:44N 33°05' W 091°10'1 4.0
2018-Jul-18 23:31N 33°04' W 091°10'5 4.2
2018-Jul-18 22:19N 32°59' W 091°10'1 4.5
2018-Jul-18 22:00N 32°58' W 091°10'18 2.3
2018-Jul-18 14:21N 32°40' W 091°06'3 3.6
2018-Jul-18 13:28N 32°38' W 091°09'2 3.8
2018-Jul-18 13:01N 32°37' W 091°09'0 0.4
2018-Jul-18 12:30N 32°36' W 091°09'1 2.4
2018-Jul-18 12:00N 32°36' W 091°08'2 4.3
2018-Jul-18 11:31N 32°34' W 091°06'4 4.4
2018-Jul-18 10:30N 32°30' W 091°07'2 4.5
2018-Jul-18 10:01N 32°28' W 091°06'2 4.5
2018-Jul-18 09:30N 32°27' W 091°04'2 4.4
2018-Jul-18 09:01N 32°26' W 091°01'2 3.8
2018-Jul-18 08:30N 32°25' W 090°60'2 3.7
2018-Jul-18 08:01N 32°23' W 091°00'2 3.6
2018-Jul-18 07:31N 32°21' W 090°59'2 4.5
2018-Jul-18 07:00N 32°21' W 090°56'2 3.7
2018-Jul-18 06:31N 32°20' W 090°54'2 3.4
2018-Jul-18 06:01N 32°19' W 090°55'2 3.9
2018-Jul-18 05:31N 32°17' W 090°56'1 2.8
2018-Jul-18 05:01N 32°16' W 090°57'2 3.7
2018-Jul-18 04:31N 32°15' W 090°59'2 4.6
2018-Jul-18 04:00N 32°13' W 090°59'2 4.1
2018-Jul-18 03:31N 32°11' W 090°60'2 3.9
2018-Jul-18 03:01N 32°09' W 091°00'2 3.8
2018-Jul-18 02:31N 32°07' W 091°01'2 3.9
2018-Jul-18 02:00N 32°08' W 091°04'2 3.9
2018-Jul-18 01:30N 32°08' W 091°06'2 3.3
2018-Jul-18 01:00N 32°06' W 091°06'2 3.2
2018-Jul-18 00:30N 32°05' W 091°04'2 4.0
2018-Jul-18 00:01N 32°03' W 091°03'1 2.9
2018-Jul-17 23:31N 32°02' W 091°04'1 2.7
2018-Jul-17 23:00N 32°01' W 091°05'5 4.1
2018-Jul-17 21:41N 31°59' W 091°11'1 4.2
2018-Jul-17 21:28N 31°58' W 091°11'11 3.0
2018-Jul-17 17:56N 31°51' W 091°21'1 3.4
2018-Jul-17 17:31N 31°49' W 091°21'50 1.8
2018-Jul-16 13:49N 31°01' W 091°37'0 0.0
2018-Jul-16 13:31N 31°01' W 091°37'  
2018-Jul-10 13:59N 31°57' W 091°11'4 7.2
2018-Jul-10 13:24N 31°59' W 091°07'3 8.1
2018-Jul-10 13:00N 32°01' W 091°04'4 7.2
2018-Jul-10 12:25N 32°05' W 091°05'2 5.4
2018-Jul-10 12:01N 32°07' W 091°06'3 6.2
2018-Jul-10 11:31N 32°07' W 091°03'4 7.1
2018-Jul-10 11:01N 32°10' W 091°00'4 8.5
2018-Jul-10 10:31N 32°14' W 090°59'4 8.1
2018-Jul-10 10:00N 32°17' W 090°56'3 6.5
2018-Jul-10 09:31N 32°20' W 090°54'3 5.0
2018-Jul-10 09:00N 32°21' W 090°57'3 6.3
2018-Jul-10 08:31N 32°23' W 091°00'3 6.8
2018-Jul-10 08:00N 32°26' W 091°02'4 8.5
2018-Jul-10 07:31N 32°28' W 091°06'4 7.5
2018-Jul-10 07:00N 32°32' W 091°06'4 7.7
2018-Jul-10 06:31N 32°35' W 091°08'4 7.5
2018-Jul-10 05:57N 32°39' W 091°09'6 7.8
2018-Jul-10 05:08N 32°43' W 091°03'1 7.0
2018-Jul-10 05:00N 32°44' W 091°04'4 7.8
2018-Jul-10 04:31N 32°44' W 091°09'  
Track history (hours):
 
Tides and Currents Weather Stations Pressure Air Temp Water Temp Dewpoint Dewpoint Depression Visibility Wind Speed Wind Dir Waves Ship Positions

Scf Mariner

Owner: SCF Waxler Marine LLC, St Rose, LA. More information available from US FCC via Universal Licensing System and Coast Guard Vessel Documentation Center.

Last reported at 2018-Jul-19 04:46 UTC. Time now 2018-Jul-19 19:30 UTC.
Position N 33°20' W 091°10'.

Length 48 m.

Type: Towing. MMSI: 367774150.

Date/timePositionNaut miles runAvg speedWind from/ knotsBaromVisibWave heightAir tempDewpointWater temp
2018-Jul-19 04:46N 33°20' W 091°10'7 3.2
2018-Jul-19 02:23N 33°14' W 091°06'2 4.0
2018-Jul-19 01:57N 33°12' W 091°05'3 3.9
2018-Jul-19 01:14N 33°09' W 091°05'3 3.7
2018-Jul-19 00:22N 33°07' W 091°08'2 3.8
2018-Jul-18 23:44N 33°05' W 091°10'1 4.0
2018-Jul-18 23:31N 33°04' W 091°10'5 4.2
2018-Jul-18 22:19N 32°59' W 091°10'1 4.5
2018-Jul-18 22:00N 32°58' W 091°10'18 2.3
2018-Jul-18 14:21N 32°40' W 091°06'3 3.6
2018-Jul-18 13:28N 32°38' W 091°09'2 3.8
2018-Jul-18 13:01N 32°37' W 091°09'0 0.4
2018-Jul-18 12:30N 32°36' W 091°09'1 2.4
2018-Jul-18 12:00N 32°36' W 091°08'2 4.3
2018-Jul-18 11:31N 32°34' W 091°06'4 4.4
2018-Jul-18 10:30N 32°30' W 091°07'2 4.5
2018-Jul-18 10:01N 32°28' W 091°06'2 4.5
2018-Jul-18 09:30N 32°27' W 091°04'2 4.4
2018-Jul-18 09:01N 32°26' W 091°01'2 3.8
2018-Jul-18 08:30N 32°25' W 090°60'2 3.7
2018-Jul-18 08:01N 32°23' W 091°00'2 3.6
2018-Jul-18 07:31N 32°21' W 090°59'2 4.5
2018-Jul-18 07:00N 32°21' W 090°56'2 3.7
2018-Jul-18 06:31N 32°20' W 090°54'2 3.4
2018-Jul-18 06:01N 32°19' W 090°55'2 3.9
2018-Jul-18 05:31N 32°17' W 090°56'1 2.8
2018-Jul-18 05:01N 32°16' W 090°57'2 3.7
2018-Jul-18 04:31N 32°15' W 090°59'2 4.6
2018-Jul-18 04:00N 32°13' W 090°59'2 4.1
2018-Jul-18 03:31N 32°11' W 090°60'2 3.9
2018-Jul-18 03:01N 32°09' W 091°00'2 3.8
2018-Jul-18 02:31N 32°07' W 091°01'2 3.9
2018-Jul-18 02:00N 32°08' W 091°04'2 3.9
2018-Jul-18 01:30N 32°08' W 091°06'2 3.3
2018-Jul-18 01:00N 32°06' W 091°06'2 3.2
2018-Jul-18 00:30N 32°05' W 091°04'2 4.0
2018-Jul-18 00:01N 32°03' W 091°03'1 2.9
2018-Jul-17 23:31N 32°02' W 091°04'1 2.7
2018-Jul-17 23:00N 32°01' W 091°05'5 4.1
2018-Jul-17 21:41N 31°59' W 091°11'1 4.2
2018-Jul-17 21:28N 31°58' W 091°11'11 3.0
2018-Jul-17 17:56N 31°51' W 091°21'1 3.4
2018-Jul-17 17:31N 31°49' W 091°21'50 1.8
2018-Jul-16 13:49N 31°01' W 091°37'0 0.0
2018-Jul-16 13:31N 31°01' W 091°37'  
2018-Jul-10 13:59N 31°57' W 091°11'4 7.2
2018-Jul-10 13:24N 31°59' W 091°07'3 8.1
2018-Jul-10 13:00N 32°01' W 091°04'4 7.2
2018-Jul-10 12:25N 32°05' W 091°05'2 5.4
2018-Jul-10 12:01N 32°07' W 091°06'3 6.2
2018-Jul-10 11:31N 32°07' W 091°03'4 7.1
2018-Jul-10 11:01N 32°10' W 091°00'4 8.5
2018-Jul-10 10:31N 32°14' W 090°59'4 8.1
2018-Jul-10 10:00N 32°17' W 090°56'3 6.5
2018-Jul-10 09:31N 32°20' W 090°54'3 5.0
2018-Jul-10 09:00N 32°21' W 090°57'3 6.3
2018-Jul-10 08:31N 32°23' W 091°00'3 6.8
2018-Jul-10 08:00N 32°26' W 091°02'4 8.5
2018-Jul-10 07:31N 32°28' W 091°06'4 7.5
2018-Jul-10 07:00N 32°32' W 091°06'4 7.7
2018-Jul-10 06:31N 32°35' W 091°08'4 7.5
2018-Jul-10 05:57N 32°39' W 091°09'6 7.8
2018-Jul-10 05:08N 32°43' W 091°03'1 7.0
2018-Jul-10 05:00N 32°44' W 091°04'4 7.8
2018-Jul-10 04:31N 32°44' W 091°09'  

Dump ship's entire track history